Time;durP1;ratioP1;P1;durP2;ratioP2;P2;SDS_P1;SDS_P2;PMS_P1;PMS_P2;Temp;Humidity;BMP_temperature;BMP_pressure;BME280_temperature;BME280_humidity;BME280_pressure;Samples;Min_cycle;Max_cycle;Signal;HPM_P1;HPM_P2
2022/10/23 00:00:33;;;;;;;32.17;11.80;;;10.20;99.90;;;;;;5093365;28;20044;-73
2022/10/23 00:02:58;;;;;;;43.90;13.43;;;10.20;99.90;;;;;;5093370;28;20040;-73
2022/10/23 00:05:25;;;;;;;42.55;13.25;;;10.40;99.90;;;;;;5091997;28;20502;-74
2022/10/23 00:07:56;;;;;;;32.85;12.63;;;10.40;99.90;;;;;;5091243;28;20070;-73
2022/10/23 00:10:24;;;;;;;38.25;13.32;;;10.30;99.90;;;;;;5092861;28;20519;-73
2022/10/23 00:12:50;;;;;;;35.45;14.00;;;10.40;99.90;;;;;;5093043;28;20093;-73
2022/10/23 00:15:19;;;;;;;34.58;13.10;;;10.40;99.90;;;;;;5093122;28;20052;-74
2022/10/23 00:17:44;;;;;;;33.05;14.35;;;10.00;99.90;;;;;;5092781;28;20487;-73
2022/10/23 00:20:12;;;;;;;34.60;14.50;;;10.50;99.90;;;;;;5091467;28;20048;-75
2022/10/23 00:22:38;;;;;;;39.42;13.18;;;10.40;99.90;;;;;;5092899;28;20036;-74
2022/10/23 00:25:05;;;;;;;41.00;14.57;;;10.50;99.90;;;;;;5091640;28;20046;-73
2022/10/23 00:27:30;;;;;;;33.00;13.15;;;10.50;99.90;;;;;;5092874;28;20504;-74
2022/10/23 00:29:56;;;;;;;36.65;13.23;;;10.90;99.90;;;;;;5092809;28;20040;-73
2022/10/23 00:32:22;;;;;;;29.55;12.90;;;10.40;99.90;;;;;;5092440;28;20121;-72
2022/10/23 00:34:47;;;;;;;36.65;13.35;;;10.00;99.90;;;;;;5092509;28;20059;-72
2022/10/23 00:37:13;;;;;;;39.50;14.18;;;10.60;99.90;;;;;;5092719;28;20395;-74
2022/10/23 00:39:39;;;;;;;32.85;13.57;;;10.30;99.90;;;;;;5092643;28;20403;-73
2022/10/23 00:42:04;;;;;;;32.28;14.23;;;10.10;99.90;;;;;;5092617;28;20062;-74
2022/10/23 00:44:30;;;;;;;29.30;13.63;;;10.70;99.90;;;;;;5092813;28;20039;-74
2022/10/23 00:46:57;;;;;;;32.85;14.63;;;10.10;99.90;;;;;;5092234;28;20048;-73
2022/10/23 00:49:24;;;;;;;28.33;13.63;;;10.40;99.90;;;;;;5092193;28;20048;-72
2022/10/23 00:51:58;;;;;;;29.02;12.88;;;10.40;99.90;;;;;;5092532;28;20052;-71
2022/10/23 00:54:26;;;;;;;28.00;12.43;;;10.70;99.90;;;;;;5092354;28;20041;-72
2022/10/23 00:56:56;;;;;;;26.70;12.18;;;10.60;99.90;;;;;;5091337;28;20052;-72
2022/10/23 00:59:22;;;;;;;34.95;13.45;;;9.80;99.90;;;;;;5092428;28;20090;-71
2022/10/23 01:01:48;;;;;;;;;;;10.10;99.90;;;;;;5092518;28;20554;-73
2022/10/23 01:04:14;;;;;;;41.40;15.02;;;10.10;99.90;;;;;;5092204;28;20003;-72
2022/10/23 01:07:00;;;;;;;28.20;14.30;;;10.00;99.90;;;;;;5092274;28;20388;-73
2022/10/23 01:09:53;;;;;;;31.58;14.60;;;9.90;99.90;;;;;;5092417;28;20059;-72
2022/10/23 01:12:34;;;;;;;36.75;14.30;;;10.20;99.90;;;;;;5091230;28;20095;-72
2022/10/23 01:15:12;;;;;;;31.40;13.57;;;9.90;99.90;;;;;;5092244;28;20073;-73
2022/10/23 01:17:59;;;;;;;43.00;14.65;;;9.80;99.90;;;;;;5090824;28;20134;-73
2022/10/23 01:20:30;;;;;;;36.17;14.45;;;9.90;99.90;;;;;;5092165;28;20040;-72
2022/10/23 01:23:19;;;;;;;32.95;15.00;;;9.90;99.90;;;;;;5092132;28;20058;-72
2022/10/23 01:26:06;;;;;;;35.17;15.73;;;10.20;99.90;;;;;;5080125;28;20055;-73
2022/10/23 01:28:43;;;;;;;33.75;15.95;;;9.90;99.90;;;;;;5091986;28;20055;-74
2022/10/23 01:31:16;;;;;;;40.63;15.73;;;10.30;99.90;;;;;;5092027;28;20055;-74
2022/10/23 01:33:50;;;;;;;42.08;16.80;;;10.70;99.90;;;;;;5091222;28;20060;-73
2022/10/23 01:36:19;;;;;;;36.08;16.80;;;10.00;99.90;;;;;;5092016;28;20052;-73
2022/10/23 01:38:52;;;;;;;47.40;16.17;;;10.10;99.90;;;;;;5091895;28;20062;-73
2022/10/23 01:41:29;;;;;;;40.88;16.17;;;10.10;99.90;;;;;;5091936;28;20083;-73
2022/10/23 01:44:01;;;;;;;;;;;9.70;99.90;;;;;;5092286;28;20055;-73
2022/10/23 01:46:29;;;;;;;31.17;14.70;;;10.10;99.90;;;;;;5091562;28;19920;-73
2022/10/23 01:48:57;;;;;;;37.40;15.52;;;9.70;99.90;;;;;;5091773;28;20051;-72
2022/10/23 01:51:25;;;;;;;46.17;16.75;;;10.00;99.90;;;;;;5091776;28;20130;-71
2022/10/23 01:53:57;;;;;;;40.13;17.00;;;10.30;99.90;;;;;;5091351;28;20492;-72
2022/10/23 01:56:28;;;;;;;35.85;17.45;;;9.70;99.90;;;;;;5090776;28;20140;-73
2022/10/23 01:58:57;;;;;;;41.95;17.25;;;9.70;99.90;;;;;;5091779;28;20193;-74
2022/10/23 02:01:26;;;;;;;44.63;17.63;;;9.90;99.90;;;;;;5091428;28;20130;-73
2022/10/23 02:03:52;;;;;;;36.95;16.83;;;10.00;99.90;;;;;;5091580;28;20040;-73
2022/10/23 02:06:18;;;;;;;;;;;10.00;99.90;;;;;;5091024;28;20055;-73
2022/10/23 02:08:44;;;;;;;43.90;19.27;;;10.00;99.90;;;;;;5091580;28;20045;-73
2022/10/23 02:11:12;;;;;;;;;;;9.90;99.90;;;;;;5092103;28;20074;-73
2022/10/23 02:14:10;;;;;;;44.45;18.88;;;10.00;99.90;;;;;;5091486;28;19923;-73
2022/10/23 02:16:41;;;;;;;50.33;20.60;;;10.30;99.90;;;;;;5090287;28;20473;-73
2022/10/23 02:19:23;;;;;;;49.67;20.92;;;10.10;99.90;;;;;;5090268;28;20051;-73
2022/10/23 02:22:29;;;;;;;45.97;21.67;;;10.10;99.90;;;;;;5091575;28;20040;-73
2022/10/23 02:25:05;;;;;;;56.92;22.92;;;10.10;99.90;;;;;;5048549;28;20398;-74
2022/10/23 02:27:37;;;;;;;46.50;21.33;;;10.30;99.90;;;;;;5048672;28;20110;-74
2022/10/23 02:30:10;;;;;;;52.10;21.25;;;10.60;99.90;;;;;;5073684;28;20492;-72
2022/10/23 02:32:40;;;;;;;60.30;22.25;;;10.30;99.90;;;;;;5094846;28;20076;-72
2022/10/23 02:35:07;;;;;;;49.50;22.35;;;9.90;99.90;;;;;;5095082;28;20135;-72
2022/10/23 02:37:33;;;;;;;50.78;22.15;;;10.10;99.90;;;;;;5094920;28;20089;-72
2022/10/23 02:39:59;;;;;;;43.15;23.52;;;10.20;99.90;;;;;;5094894;28;20043;-72
2022/10/23 02:43:03;;;;;;;49.53;23.63;;;10.30;99.90;;;;;;5094882;28;20048;-73
2022/10/23 02:45:44;;;;;;;47.53;22.40;;;10.00;99.90;;;;;;5084942;28;20055;-73
2022/10/23 02:48:22;;;;;;;54.78;24.00;;;10.20;99.90;;;;;;5094812;28;20127;-72
2022/10/23 02:51:14;;;;;;;50.67;23.67;;;10.50;99.90;;;;;;5094828;28;20048;-72
2022/10/23 02:53:59;;;;;;;56.90;23.85;;;10.30;99.90;;;;;;5094774;28;20040;-73
2022/10/23 02:56:38;;;;;;;51.92;23.80;;;10.70;99.90;;;;;;5094480;28;20585;-74
2022/10/23 02:59:31;;;;;;;55.80;23.85;;;10.30;99.90;;;;;;5094640;28;20157;-74
2022/10/23 03:02:12;;;;;;;55.65;22.80;;;10.00;99.90;;;;;;5087520;28;20056;-74
2022/10/23 03:04:41;;;;;;;48.30;22.98;;;10.90;99.90;;;;;;5094606;28;20040;-73
2022/10/23 03:07:11;;;;;;;52.38;23.10;;;10.60;99.90;;;;;;5094398;28;20052;-74
2022/10/23 03:09:37;;;;;;;65.13;24.30;;;10.00;99.90;;;;;;5094438;28;20044;-73
2022/10/23 03:12:03;;;;;;;49.85;23.02;;;9.90;99.90;;;;;;5094351;28;20055;-73
2022/10/23 03:14:28;;;;;;;46.67;23.02;;;10.00;99.90;;;;;;5094020;28;20032;-73
2022/10/23 03:16:54;;;;;;;48.72;23.15;;;10.00;99.90;;;;;;5094249;28;20185;-74
2022/10/23 03:19:20;;;;;;;47.05;23.67;;;9.90;99.90;;;;;;5094191;28;20051;-73
2022/10/23 03:21:45;;;;;;;53.47;24.33;;;10.20;99.90;;;;;;5094123;28;20052;-73
2022/10/23 03:24:11;;;;;;;63.55;26.48;;;10.10;99.90;;;;;;5092824;28;20488;-73
2022/10/23 03:26:37;;;;;;;56.28;25.13;;;10.00;99.90;;;;;;5094036;28;20059;-73
2022/10/23 03:29:02;;;;;;;51.33;23.40;;;9.70;99.90;;;;;;5093729;28;20411;-74
2022/10/23 03:31:28;;;;;;;51.00;24.63;;;10.00;99.90;;;;;;5092905;28;20051;-73
2022/10/23 03:33:53;;;;;;;52.33;25.38;;;9.80;99.90;;;;;;5093848;28;20087;-72
2022/10/23 03:36:19;;;;;;;53.15;25.98;;;10.60;99.90;;;;;;5092516;28;20201;-73
2022/10/23 03:38:45;;;;;;;56.90;25.30;;;10.40;99.90;;;;;;5093563;28;20048;-73
2022/10/23 03:41:10;;;;;;;50.65;25.75;;;10.00;99.90;;;;;;5093708;28;20048;-73
2022/10/23 03:43:36;;;;;;;57.53;27.58;;;10.20;99.90;;;;;;5091207;28;20086;-73
2022/10/23 03:46:07;;;;;;;57.38;26.80;;;9.90;99.90;;;;;;5093669;28;20048;-73
2022/10/23 03:48:36;;;;;;;57.72;26.52;;;10.00;99.90;;;;;;5093713;28;20135;-73
2022/10/23 03:51:03;;;;;;;63.75;27.35;;;9.60;99.90;;;;;;5093506;28;20090;-73
2022/10/23 03:53:29;;;;;;;64.70;28.50;;;10.10;99.90;;;;;;5093487;28;20082;-74
2022/10/23 03:55:55;;;;;;;51.65;26.73;;;10.30;99.90;;;;;;5093502;28;20079;-74
2022/10/23 03:58:20;;;;;;;58.38;27.52;;;10.60;99.90;;;;;;5091936;28;20058;-74
2022/10/23 04:00:46;;;;;;;58.80;27.17;;;9.80;99.90;;;;;;5093413;28;20495;-74
2022/10/23 04:03:11;;;;;;;59.60;28.73;;;10.10;99.90;;;;;;5093269;28;20040;-74
2022/10/23 04:05:38;;;;;;;55.15;26.58;;;10.30;99.90;;;;;;5093272;28;20048;-74
2022/10/23 04:08:03;;;;;;;59.95;25.02;;;10.30;99.90;;;;;;5093285;28;20051;-74
2022/10/23 04:10:29;;;;;;;61.58;28.23;;;9.90;99.90;;;;;;5093209;28;20063;-74
2022/10/23 04:12:55;;;;;;;59.65;27.42;;;10.30;99.90;;;;;;5092802;28;20044;-74
2022/10/23 04:15:20;;;;;;;65.22;28.08;;;10.20;99.90;;;;;;5093071;28;20152;-73
2022/10/23 04:17:46;;;;;;;63.85;27.10;;;10.10;99.90;;;;;;5092010;28;20043;-73
2022/10/23 04:20:12;;;;;;;61.95;28.40;;;10.00;99.90;;;;;;5093010;28;20051;-73
2022/10/23 04:22:37;;;;;;;60.00;26.50;;;9.90;99.90;;;;;;5092943;28;20047;-73
2022/10/23 04:25:03;;;;;;;54.92;27.23;;;10.10;99.90;;;;;;5092908;28;20048;-73
2022/10/23 04:27:29;;;;;;;59.25;27.27;;;10.20;99.90;;;;;;5092453;28;20044;-73
2022/10/23 04:29:54;;;;;;;57.05;26.40;;;10.60;99.90;;;;;;5092811;28;20056;-74
2022/10/23 04:32:20;;;;;;;58.47;27.45;;;9.80;99.90;;;;;;5092540;28;20493;-74
2022/10/23 04:34:46;;;;;;;52.78;23.67;;;10.10;99.90;;;;;;5092803;28;20438;-73
2022/10/23 04:37:11;;;;;;;49.00;25.70;;;9.90;99.90;;;;;;5092672;28;20101;-74
2022/10/23 04:39:37;;;;;;;51.35;25.50;;;10.20;99.90;;;;;;5091610;28;20190;-74
2022/10/23 04:42:03;;;;;;;55.65;25.55;;;10.10;99.90;;;;;;5092334;28;20044;-74
2022/10/23 04:44:28;;;;;;;50.15;25.02;;;10.00;99.90;;;;;;5091015;28;20047;-74
2022/10/23 04:46:54;;;;;;;49.42;24.60;;;10.40;99.90;;;;;;5091530;28;20080;-73
2022/10/23 04:49:20;;;;;;;67.05;26.15;;;10.30;99.90;;;;;;5092533;28;20048;-74
2022/10/23 04:51:45;;;;;;;51.65;24.38;;;10.10;99.90;;;;;;5092606;28;20043;-74
2022/10/23 04:54:11;;;;;;;62.30;26.10;;;9.70;99.90;;;;;;5092232;28;20051;-74
2022/10/23 04:56:37;;;;;;;63.40;27.60;;;9.90;99.90;;;;;;5091459;28;20043;-74
2022/10/23 04:59:03;;;;;;;51.50;24.70;;;9.80;99.90;;;;;;5091457;28;20083;-74
2022/10/23 05:01:28;;;;;;;55.78;25.33;;;9.90;99.90;;;;;;5092081;28;20048;-74
2022/10/23 05:03:55;;;;;;;51.58;25.95;;;10.00;99.90;;;;;;5091989;28;20044;-74
2022/10/23 05:06:21;;;;;;;51.35;25.27;;;10.20;99.90;;;;;;5092263;28;20090;-74
2022/10/23 05:08:47;;;;;;;56.17;26.00;;;10.50;99.90;;;;;;5092265;28;20460;-74
2022/10/23 05:11:12;;;;;;;49.53;23.95;;;10.00;99.90;;;;;;5090664;28;20051;-74
2022/10/23 05:13:38;;;;;;;57.22;25.73;;;10.30;99.90;;;;;;5090836;28;20050;-74
2022/10/23 05:16:04;;;;;;;54.10;25.35;;;10.00;99.90;;;;;;5092154;28;20040;-74
2022/10/23 05:18:46;;;;;;;59.85;27.15;;;10.10;99.90;;;;;;5092062;28;20138;-74
2022/10/23 05:21:20;;;;;;;58.75;25.40;;;9.90;99.90;;;;;;5092109;28;20060;-74
2022/10/23 05:23:46;;;;;;;61.08;26.05;;;10.50;99.90;;;;;;5092127;28;20040;-74
2022/10/23 05:26:12;;;;;;;50.45;25.45;;;10.60;99.90;;;;;;5091782;28;20055;-74
2022/10/23 05:28:38;;;;;;;48.60;21.48;;;10.10;99.90;;;;;;5091015;28;20056;-74
2022/10/23 05:31:05;;;;;;;46.83;23.13;;;10.10;99.90;;;;;;5090948;28;20044;-74
2022/10/23 05:33:33;;;;;;;51.80;23.02;;;9.70;99.90;;;;;;5091512;28;20449;-74
2022/10/23 05:35:59;;;;;;;50.28;23.73;;;10.00;99.90;;;;;;5091894;28;20051;-74
2022/10/23 05:38:27;;;;;;;45.28;22.80;;;9.80;99.90;;;;;;5091659;28;20044;-74
2022/10/23 05:40:53;;;;;;;52.33;23.40;;;9.60;99.90;;;;;;5090893;28;20048;-74
2022/10/23 05:43:19;;;;;;;52.85;24.27;;;10.30;99.90;;;;;;5091866;28;20052;-74
2022/10/23 05:45:46;;;;;;;44.88;23.17;;;9.50;99.90;;;;;;5091904;28;20434;-74
2022/10/23 05:48:14;;;;;;;41.55;21.83;;;9.70;99.90;;;;;;5090757;28;20113;-75
2022/10/23 05:50:40;;;;;;;56.00;23.13;;;9.90;99.90;;;;;;5091821;28;20088;-74
2022/10/23 05:53:06;;;;;;;52.08;23.83;;;9.80;99.90;;;;;;5091452;28;20083;-74
2022/10/23 05:55:32;;;;;;;50.38;23.77;;;9.90;99.90;;;;;;5090769;28;20044;-74
2022/10/23 05:58:01;;;;;;;45.75;22.73;;;9.90;99.90;;;;;;5091737;28;20052;-75
2022/10/23 06:00:27;;;;;;;53.10;24.98;;;9.80;99.90;;;;;;5091726;28;20052;-75
2022/10/23 06:02:53;;;;;;;47.28;25.08;;;9.40;99.90;;;;;;5091770;28;20469;-74
2022/10/23 06:05:18;;;;;;;51.13;23.80;;;9.50;99.90;;;;;;5091844;28;20481;-74
2022/10/23 06:07:44;;;;;;;48.08;23.85;;;9.80;99.90;;;;;;5095326;28;20044;-74
2022/10/23 06:10:10;;;;;;;44.53;22.35;;;9.80;99.90;;;;;;5095550;28;20392;-75
2022/10/23 06:12:35;;;;;;;54.80;26.85;;;10.30;99.90;;;;;;5095390;28;20092;-75
2022/10/23 06:15:01;;;;;;;57.67;26.48;;;9.80;99.90;;;;;;5095436;28;20083;-75
2022/10/23 06:17:27;;;;;;;64.35;27.90;;;9.80;99.90;;;;;;5094308;28;20461;-75
2022/10/23 06:19:59;;;;;;;65.65;28.00;;;9.60;99.90;;;;;;5095310;28;20052;-75
2022/10/23 06:22:26;;;;;;;63.20;29.10;;;9.90;99.90;;;;;;5095037;28;20040;-75
2022/10/23 06:24:52;;;;;;;62.42;28.35;;;9.60;99.90;;;;;;5095236;28;20125;-75
2022/10/23 06:27:18;;;;;;;58.67;27.70;;;9.10;99.90;;;;;;5093885;28;20043;-75
2022/10/23 06:29:43;;;;;;;66.22;29.38;;;9.40;99.90;;;;;;5095171;28;20044;-75
2022/10/23 06:32:09;;;;;;;54.90;27.08;;;10.10;99.90;;;;;;5094852;28;20044;-75
2022/10/23 06:34:35;;;;;;;65.25;29.73;;;9.60;99.90;;;;;;5093763;28;20496;-76
2022/10/23 06:37:01;;;;;;;58.92;27.70;;;9.70;99.90;;;;;;5093726;28;20046;-75
2022/10/23 06:39:26;;;;;;;66.28;29.42;;;9.70;99.90;;;;;;5095017;28;20056;-75
2022/10/23 06:41:52;;;;;;;60.10;29.48;;;9.40;99.90;;;;;;5094932;28;20060;-75
2022/10/23 06:44:18;;;;;;;59.63;28.80;;;9.80;99.90;;;;;;5094622;28;20321;-75
2022/10/23 06:46:46;;;;;;;61.08;28.80;;;10.00;99.90;;;;;;5094861;28;20127;-76
2022/10/23 06:49:13;;;;;;;63.67;29.17;;;10.00;99.90;;;;;;5094469;28;20483;-75
2022/10/23 06:51:39;;;;;;;55.65;28.83;;;10.00;99.90;;;;;;5094787;28;20080;-75
2022/10/23 06:54:05;;;;;;;69.13;30.20;;;9.90;99.90;;;;;;5095012;28;20463;-75
2022/10/23 06:56:31;;;;;;;72.88;30.33;;;10.00;99.90;;;;;;5094677;28;20083;-75
2022/10/23 06:58:57;;;;;;;63.65;31.00;;;9.80;99.90;;;;;;5094302;28;20048;-75
2022/10/23 07:01:23;;;;;;;60.60;28.58;;;10.00;99.90;;;;;;5094595;28;20135;-75
2022/10/23 07:03:49;;;;;;;71.47;31.02;;;9.90;99.90;;;;;;5093300;28;20127;-75
2022/10/23 07:06:15;;;;;;;62.42;29.27;;;10.00;99.90;;;;;;5093864;28;20122;-76
2022/10/23 07:08:41;;;;;;;53.70;28.45;;;10.40;99.90;;;;;;5094436;28;20143;-75
2022/10/23 07:11:09;;;;;;;59.17;29.52;;;10.20;99.90;;;;;;5094393;28;20040;-75
2022/10/23 07:13:35;;;;;;;69.43;30.80;;;10.40;99.90;;;;;;5094272;28;20044;-75
2022/10/23 07:16:14;;;;;;;;;;;10.40;99.90;;;;;;5094562;28;20047;-75
2022/10/23 07:18:41;;;;;;;55.72;27.77;;;10.10;99.90;;;;;;5094217;28;19919;-75
2022/10/23 07:21:06;;;;;;;66.65;30.40;;;10.50;99.90;;;;;;5093874;28;20051;-75
2022/10/23 07:23:32;;;;;;;65.43;28.48;;;10.40;99.90;;;;;;5094110;28;20435;-75
2022/10/23 07:26:09;;;;;;;60.88;29.35;;;10.20;99.90;;;;;;5094028;28;20048;-75
2022/10/23 07:28:35;;;;;;;51.60;27.60;;;10.60;99.90;;;;;;5094058;28;20082;-75
2022/10/23 07:31:02;;;;;;;66.47;30.77;;;10.70;99.90;;;;;;5094024;28;20147;-75
2022/10/23 07:33:27;;;;;;;54.75;28.10;;;10.40;99.90;;;;;;5093489;28;20052;-75
2022/10/23 07:35:53;;;;;;;59.92;28.45;;;10.70;99.90;;;;;;5093628;28;20052;-76
2022/10/23 07:38:19;;;;;;;67.05;29.27;;;11.00;99.90;;;;;;5093814;28;20044;-75
2022/10/23 07:40:45;;;;;;;68.22;31.27;;;11.20;99.90;;;;;;5093876;28;20101;-75
2022/10/23 07:43:10;;;;;;;65.25;29.77;;;10.80;99.90;;;;;;5092769;28;20048;-76
2022/10/23 07:45:36;;;;;;;58.70;28.70;;;10.70;99.90;;;;;;5093690;28;20040;-75
2022/10/23 07:48:02;;;;;;;60.42;28.73;;;11.80;99.90;;;;;;5093653;28;20086;-76
2022/10/23 07:50:27;;;;;;;60.30;28.63;;;11.00;99.90;;;;;;5092287;28;20055;-75
2022/10/23 07:52:53;;;;;;;61.65;28.90;;;10.90;99.90;;;;;;5093466;28;20044;-77
2022/10/23 07:55:19;;;;;;;58.83;28.90;;;11.20;99.90;;;;;;5092528;28;20514;-76
2022/10/23 07:57:44;;;;;;;62.80;29.45;;;10.80;99.90;;;;;;5092195;28;20044;-76
2022/10/23 08:00:11;;;;;;;55.13;27.75;;;11.40;99.90;;;;;;5093390;28;20051;-76
2022/10/23 08:02:37;;;;;;;56.42;27.50;;;11.00;99.90;;;;;;5093334;28;20135;-76
2022/10/23 08:05:03;;;;;;;58.22;25.58;;;11.40;99.90;;;;;;5093079;28;20523;-76
2022/10/23 08:07:28;;;;;;;;;;;11.00;99.90;;;;;;5093802;28;20051;-75
2022/10/23 08:09:54;;;;;;;55.45;27.13;;;11.40;99.90;;;;;;5093205;28;20352;-76
2022/10/23 08:12:20;;;;;;;53.63;27.75;;;11.40;99.90;;;;;;5093168;28;20044;-76
2022/10/23 08:14:45;;;;;;;47.65;24.45;;;11.20;99.90;;;;;;5093033;28;20044;-76
2022/10/23 08:17:11;;;;;;;54.72;26.42;;;11.50;99.90;;;;;;5091918;28;20043;-76
2022/10/23 08:19:36;;;;;;;56.28;26.33;;;11.30;99.90;;;;;;5092457;28;20165;-76
2022/10/23 08:22:02;;;;;;;48.55;24.45;;;11.70;99.90;;;;;;5092957;28;20093;-76
2022/10/23 08:24:28;;;;;;;62.25;27.45;;;11.80;99.90;;;;;;5092922;28;20048;-76
2022/10/23 08:26:54;;;;;;;47.22;23.33;;;11.70;99.90;;;;;;5091676;28;20063;-77
2022/10/23 08:29:20;;;;;;;46.83;25.42;;;11.30;99.90;;;;;;5092411;28;20126;-76
2022/10/23 08:31:45;;;;;;;44.88;22.10;;;11.40;99.90;;;;;;5092868;28;20048;-76
2022/10/23 08:34:12;;;;;;;41.25;22.38;;;11.90;99.90;;;;;;5092549;28;20052;-76
2022/10/23 08:36:38;;;;;;;47.75;23.60;;;12.00;99.90;;;;;;5092764;28;20058;-76
2022/10/23 08:39:04;;;;;;;51.40;21.92;;;11.80;99.90;;;;;;5092833;28;20047;-76
2022/10/23 08:41:44;;;;;;;39.10;21.27;;;12.00;99.90;;;;;;5092464;28;20051;-75
2022/10/23 08:44:18;;;;;;;40.95;21.08;;;12.20;99.90;;;;;;5092841;28;20032;-76
2022/10/23 08:46:51;;;;;;;47.50;22.35;;;12.10;99.90;;;;;;5092682;28;20577;-76
2022/10/23 08:49:23;;;;;;;40.97;20.73;;;12.00;99.90;;;;;;5091422;28;20044;-75
2022/10/23 08:51:53;;;;;;;36.15;19.20;;;12.20;99.90;;;;;;5091459;28;20055;-76
2022/10/23 08:54:32;;;;;;;41.97;19.88;;;12.30;99.90;;;;;;5091210;28;20147;-76
2022/10/23 08:57:08;;;;;;;36.47;20.25;;;12.20;99.90;;;;;;5092404;28;20044;-76
2022/10/23 08:59:41;;;;;;;37.45;19.67;;;12.20;99.90;;;;;;5091388;28;20113;-76
2022/10/23 09:02:06;;;;;;;33.35;19.10;;;12.20;99.90;;;;;;5090854;28;20044;-76
2022/10/23 09:04:32;;;;;;;39.25;19.40;;;12.90;99.90;;;;;;5092310;28;20089;-76
2022/10/23 09:07:39;;;;;;;34.70;20.63;;;12.50;99.90;;;;;;5092298;28;20052;-78
2022/10/23 09:10:30;;;;;;;39.25;19.52;;;12.70;99.90;;;;;;5091473;28;20091;-76
2022/10/23 09:13:13;;;;;;;37.67;19.38;;;12.80;99.90;;;;;;5092090;28;20083;-76
2022/10/23 09:15:43;;;;;;;35.55;18.52;;;12.80;99.90;;;;;;5074040;28;20381;-76
2022/10/23 09:18:13;;;;;;;39.72;19.70;;;12.20;99.90;;;;;;5091813;28;20048;-77
2022/10/23 09:20:42;;;;;;;31.90;18.35;;;12.70;99.90;;;;;;5092097;28;20446;-76
2022/10/23 09:23:16;;;;;;;38.92;19.63;;;12.80;99.90;;;;;;5092018;28;20079;-76
2022/10/23 09:25:42;;;;;;;39.20;20.20;;;12.90;99.90;;;;;;5092018;28;20134;-76
2022/10/23 09:28:23;;;;;;;34.38;18.33;;;12.90;99.90;;;;;;5091996;28;20113;-77
2022/10/23 09:30:51;;;;;;;38.33;18.55;;;13.10;99.90;;;;;;5091763;28;20040;-76
2022/10/23 09:33:20;;;;;;;32.33;17.58;;;13.70;99.90;;;;;;5090435;28;20500;-76
2022/10/23 09:36:03;;;;;;;27.48;17.20;;;13.40;99.90;;;;;;5090885;28;20059;-77
2022/10/23 09:38:30;;;;;;;32.85;17.65;;;13.40;99.90;;;;;;5091971;28;20052;-76
2022/10/23 09:41:05;;;;;;;33.95;16.95;;;13.60;99.90;;;;;;5093552;28;20047;-76
2022/10/23 09:43:31;;;;;;;30.63;17.10;;;13.50;99.90;;;;;;5096125;28;20048;-77
2022/10/23 09:46:03;;;;;;;34.58;17.48;;;14.00;99.90;;;;;;5095746;28;20051;-76
2022/10/23 09:48:29;;;;;;;33.25;16.95;;;13.50;99.90;;;;;;5096037;28;20407;-76
2022/10/23 09:51:04;;;;;;;29.30;16.20;;;13.90;99.90;;;;;;5095682;28;20480;-75
2022/10/23 09:53:30;;;;;;;31.90;16.60;;;13.50;99.90;;;;;;5095627;28;20135;-76
2022/10/23 09:56:00;;;;;;;28.98;16.50;;;13.90;99.90;;;;;;5096040;28;20506;-76
2022/10/23 09:58:52;;;;;;;23.15;15.55;;;14.10;99.90;;;;;;5094751;28;20048;-76
2022/10/23 10:01:45;;;;;;;29.80;15.82;;;13.50;99.90;;;;;;5095641;28;20788;-76
2022/10/23 10:04:11;;;;;;;27.17;15.40;;;14.00;99.90;;;;;;5094021;28;20063;-76
2022/10/23 10:06:37;;;;;;;28.35;14.50;;;13.80;99.90;;;;;;5095689;28;20040;-75
2022/10/23 10:09:06;;;;;;;;;;;14.30;99.90;;;;;;5094754;28;20094;-75
2022/10/23 10:11:50;;;;;;;21.23;13.95;;;13.80;99.90;;;;;;5095611;28;19924;-75
2022/10/23 10:14:41;;;;;;;27.25;14.38;;;14.30;99.90;;;;;;5095255;28;20087;-73
2022/10/23 10:17:21;;;;;;;19.17;12.95;;;14.30;99.90;;;;;;5095475;28;20090;-75
2022/10/23 10:19:47;;;;;;;24.48;13.52;;;14.00;99.90;;;;;;5095444;28;20048;-75
2022/10/23 10:22:15;;;;;;;;;;;14.40;99.90;;;;;;5095426;28;20484;-75
2022/10/23 10:25:05;;;;;;;24.25;12.82;;;14.20;99.90;;;;;;5095330;28;19926;-75
2022/10/23 10:27:34;;;;;;;23.27;12.98;;;14.10;99.90;;;;;;5095362;28;20048;-75
2022/10/23 10:30:17;;;;;;;23.63;13.52;;;14.10;99.90;;;;;;5094997;28;20051;-76
2022/10/23 10:32:49;;;;;;;20.75;12.88;;;14.40;99.90;;;;;;5095101;28;20056;-75
2022/10/23 10:35:17;;;;;;;25.38;12.88;;;14.30;99.90;;;;;;5094194;28;20091;-75
2022/10/23 10:38:02;;;;;;;21.10;12.32;;;14.60;99.90;;;;;;5095242;28;20113;-78
2022/10/23 10:40:39;;;;;;;20.27;11.18;;;15.00;99.90;;;;;;5095271;28;20048;-75
2022/10/23 10:43:26;;;;;;;26.20;11.90;;;15.00;99.90;;;;;;5094791;28;20051;-75
2022/10/23 10:45:58;;;;;;;21.63;11.48;;;14.70;99.90;;;;;;5095000;28;20044;-75
2022/10/23 10:48:24;;;;;;;17.75;11.50;;;14.60;99.90;;;;;;5094941;28;20435;-74
2022/10/23 10:51:04;;;;;;;20.80;11.00;;;15.10;99.90;;;;;;5094528;28;20051;-75
2022/10/23 10:53:41;;;;;;;18.55;10.93;;;14.90;99.90;;;;;;5094726;28;20105;-74
2022/10/23 10:56:13;;;;;;;20.98;10.05;;;15.10;99.90;;;;;;5094722;28;20048;-74
2022/10/23 10:58:41;;;;;;;16.50;10.23;;;15.10;99.90;;;;;;5094434;28;20044;-74
2022/10/23 11:01:25;;;;;;;21.00;10.13;;;15.10;99.90;;;;;;5094577;28;20050;-74
2022/10/23 11:03:56;;;;;;;19.40;10.35;;;15.40;99.90;;;;;;5093578;28;20109;-74
2022/10/23 11:06:26;;;;;;;17.05;9.52;;;15.50;99.90;;;;;;5094483;28;20099;-73
2022/10/23 11:08:52;;;;;;;18.92;9.80;;;15.40;99.90;;;;;;5094462;28;20092;-74
2022/10/23 11:11:33;;;;;;;17.73;9.10;;;15.40;99.90;;;;;;5094416;28;20055;-74
2022/10/23 11:13:59;;;;;;;16.92;9.55;;;15.50;99.90;;;;;;5094061;28;20487;-74
2022/10/23 11:16:27;;;;;;;;;;;15.50;99.90;;;;;;5094884;28;20083;-74
2022/10/23 11:18:56;;;;;;;17.17;9.73;;;15.00;99.90;;;;;;5094335;28;19920;-73
2022/10/23 11:21:36;;;;;;;17.80;8.63;;;15.60;99.90;;;;;;5094167;28;20047;-73
2022/10/23 11:24:39;;;;;;;21.08;10.35;;;15.60;99.90;;;;;;5094190;28;20117;-72
2022/10/23 11:27:29;;;;;;;18.48;9.50;;;15.60;99.90;;;;;;5093922;28;20051;-74
2022/10/23 11:30:21;;;;;;;14.20;9.02;;;15.80;99.90;;;;;;5094065;28;20051;-73
2022/10/23 11:32:53;;;;;;;17.15;9.32;;;15.70;99.90;;;;;;5093940;28;20056;-76
2022/10/23 11:35:42;;;;;;;18.63;8.43;;;15.60;99.90;;;;;;5094009;28;20151;-74
2022/10/23 11:38:27;;;;;;;21.33;8.68;;;15.60;99.90;;;;;;5093924;28;20055;-75
2022/10/23 11:40:57;;;;;;;15.02;8.98;;;15.70;99.90;;;;;;5093826;28;20052;-74
2022/10/23 11:43:45;;;;;;;14.38;8.02;;;15.70;99.90;;;;;;5093763;28;20127;-75
2022/10/23 11:46:38;;;;;;;14.07;8.23;;;15.50;99.90;;;;;;5093781;28;20047;-73
2022/10/23 11:49:18;;;;;;;14.27;8.50;;;15.90;99.90;;;;;;5091378;28;20075;-74
2022/10/23 11:51:43;;;;;;;14.63;8.15;;;16.10;99.90;;;;;;5093417;28;20488;-74
2022/10/23 11:54:09;;;;;;;;;;;15.90;99.90;;;;;;5093713;28;20174;-74
2022/10/23 11:56:36;;;;;;;16.50;7.55;;;16.00;99.90;;;;;;5093251;28;19981;-75
2022/10/23 11:59:22;;;;;;;15.98;7.60;;;16.40;99.90;;;;;;5093447;28;20053;-74
2022/10/23 12:01:49;;;;;;;11.30;7.70;;;15.90;99.90;;;;;;5093241;28;20135;-73
2022/10/23 12:04:17;;;;;;;14.57;7.72;;;16.20;99.90;;;;;;5092481;28;20051;-74
2022/10/23 12:06:49;;;;;;;13.23;7.18;;;16.30;99.90;;;;;;5093344;28;20040;-74
2022/10/23 12:09:30;;;;;;;12.73;7.43;;;15.80;99.90;;;;;;5092017;28;20105;-74
2022/10/23 12:12:07;;;;;;;12.52;7.20;;;16.20;99.90;;;;;;5093070;28;20491;-73
2022/10/23 12:14:35;;;;;;;12.88;7.40;;;16.20;99.90;;;;;;5093178;28;20044;-73
2022/10/23 12:17:01;;;;;;;12.82;7.38;;;15.90;99.90;;;;;;5093160;28;20048;-73
2022/10/23 12:19:29;;;;;;;15.50;7.05;;;16.20;99.90;;;;;;5091863;28;20074;-73
2022/10/23 12:22:00;;;;;;;16.10;6.63;;;16.20;99.90;;;;;;5093133;28;20151;-74
2022/10/23 12:24:30;;;;;;;20.65;6.60;;;16.20;99.90;;;;;;5092890;28;20043;-74
2022/10/23 12:27:22;;;;;;;13.77;6.32;;;16.00;99.90;;;;;;5093374;28;20052;-73
2022/10/23 12:30:19;;;;;;;11.75;5.68;;;16.10;99.90;;;;;;5091798;28;20397;-73
2022/10/23 12:33:28;;;;;;;11.38;6.20;;;16.00;99.90;;;;;;5092892;28;20131;-73
2022/10/23 12:36:12;;;;;;;15.20;6.88;;;16.00;99.90;;;;;;5093364;28;20048;-74
2022/10/23 12:38:48;;;;;;;12.45;5.70;;;16.00;99.90;;;;;;5092962;28;20080;-73
2022/10/23 12:41:28;;;;;;;14.07;6.65;;;16.10;99.90;;;;;;5092626;28;20048;-79
2022/10/23 12:44:03;;;;;;;14.98;6.25;;;16.00;99.90;;;;;;5092610;28;20048;-73
2022/10/23 12:46:34;;;;;;;12.15;5.80;;;15.90;99.90;;;;;;5092679;28;20048;-73
2022/10/23 12:49:03;;;;;;;20.25;9.75;;;16.20;99.90;;;;;;5092681;28;20434;-73
2022/10/23 12:51:31;;;;;;;11.63;6.28;;;15.80;99.90;;;;;;5092582;28;20051;-72